createdAt,value
2019-04-04T00:02:04.087Z,15.80
2019-04-04T00:04:35.162Z,17.32
2019-04-04T00:07:06.163Z,21.10
2019-04-04T00:09:37.181Z,17.77
2019-04-04T00:12:08.704Z,21.57
2019-04-04T00:14:43.484Z,27.37
2019-04-04T00:17:15.461Z,18.00
2019-04-04T00:19:47.508Z,27.13
2019-04-04T00:22:19.332Z,22.42
2019-04-04T00:24:51.176Z,22.75
2019-04-04T00:27:25.408Z,27.82
2019-04-04T00:30:02.791Z,27.50
2019-04-04T00:32:34.180Z,29.80
2019-04-04T00:35:12.025Z,28.42
2019-04-04T00:37:43.340Z,27.02
2019-04-04T00:40:14.669Z,27.90
2019-04-04T00:42:54.925Z,30.85
2019-04-04T00:45:28.730Z,27.48
2019-04-04T00:48:03.083Z,29.52
2019-04-04T00:50:36.775Z,31.85
2019-04-04T00:53:12.316Z,29.30
2019-04-04T00:55:48.876Z,28.42
2019-04-04T00:58:20.833Z,35.20
2019-04-04T01:00:54.915Z,30.65
2019-04-04T01:03:32.132Z,30.62
2019-04-04T01:06:03.781Z,39.75
2019-04-04T01:08:38.011Z,32.70
2019-04-04T01:11:08.138Z,35.00
2019-04-04T01:13:39.569Z,35.00
2019-04-04T01:16:10.898Z,33.73
2019-04-04T01:18:42.279Z,34.80
2019-04-04T01:21:13.661Z,31.37
2019-04-04T01:23:50.942Z,31.73
2019-04-04T01:26:31.250Z,33.48
2019-04-04T01:29:05.506Z,35.25
2019-04-04T01:31:46.026Z,38.23
2019-04-04T01:34:20.802Z,37.75
2019-04-04T01:36:51.958Z,35.60
2019-04-04T01:39:35.018Z,39.18
2019-04-04T01:42:07.224Z,45.78
2019-04-04T01:44:40.157Z,49.20
2019-04-04T01:47:17.651Z,41.88
2019-04-04T01:49:49.963Z,43.55
2019-04-04T01:52:27.773Z,49.55
2019-04-04T01:54:59.125Z,43.92
2019-04-04T01:57:30.429Z,46.95
2019-04-04T02:00:02.849Z,39.63
2019-04-04T02:02:34.606Z,39.15
2019-04-04T02:05:08.815Z,39.67
2019-04-04T02:07:39.939Z,43.30
2019-04-04T02:10:11.073Z,38.73
2019-04-04T02:12:42.241Z,38.30
2019-04-04T02:15:14.274Z,43.85
2019-04-04T02:17:46.170Z,38.55
2019-04-04T02:20:17.572Z,41.68
2019-04-04T02:22:52.015Z,39.85
2019-04-04T02:25:23.134Z,30.17
2019-04-04T02:27:54.191Z,42.55
2019-04-04T02:30:25.332Z,40.05
2019-04-04T02:32:59.332Z,42.43
2019-04-04T02:35:29.364Z,47.23
2019-04-04T02:38:00.612Z,42.60
2019-04-04T02:40:31.813Z,46.60
2019-04-04T02:43:02.924Z,39.15
2019-04-04T02:45:35.687Z,43.48
2019-04-04T02:48:07.041Z,40.43
2019-04-04T02:50:38.231Z,44.15
2019-04-04T02:53:09.504Z,42.27
2019-04-04T02:55:40.634Z,42.65
2019-04-04T02:58:15.089Z,42.93
2019-04-04T03:00:44.596Z,60.48
2019-04-04T03:03:17.384Z,55.50
2019-04-04T03:05:51.952Z,77.97
2019-04-04T03:08:22.335Z,80.92
2019-04-04T03:10:53.519Z,71.35
2019-04-04T03:13:24.620Z,72.78
2019-04-04T03:15:55.726Z,61.23
2019-04-04T03:18:26.808Z,67.87
2019-04-04T03:20:58.067Z,63.98
2019-04-04T03:23:32.984Z,67.35
2019-04-04T03:26:03.294Z,67.70
2019-04-04T03:28:34.524Z,70.52
2019-04-04T03:31:05.664Z,62.17
2019-04-04T03:33:36.933Z,61.05
2019-04-04T03:36:07.979Z,69.45
2019-04-04T03:38:39.210Z,70.35
2019-04-04T03:41:10.219Z,66.00
2019-04-04T03:43:41.404Z,58.45
2019-04-04T03:46:12.604Z,58.65
2019-04-04T03:48:43.862Z,44.48
2019-04-04T03:51:15.087Z,45.70
2019-04-04T03:53:50.567Z,49.20
2019-04-04T03:56:22.153Z,56.00
2019-04-04T03:58:53.274Z,48.87
2019-04-04T04:01:24.362Z,55.80
2019-04-04T04:03:56.976Z,50.28
2019-04-04T04:06:28.044Z,52.50
2019-04-04T04:08:59.160Z,53.52
2019-04-04T04:11:30.257Z,49.60
2019-04-04T04:14:01.417Z,49.25
2019-04-04T04:16:34.766Z,56.02
2019-04-04T04:19:05.397Z,65.20
2019-04-04T04:21:36.595Z,63.63
2019-04-04T04:24:07.645Z,65.83
2019-04-04T04:26:42.002Z,68.10
2019-04-04T04:29:11.637Z,70.05
2019-04-04T04:31:42.712Z,66.37
2019-04-04T04:34:14.001Z,68.30
2019-04-04T04:36:47.692Z,64.82
2019-04-04T04:39:18.103Z,71.25
2019-04-04T04:41:53.138Z,63.52
2019-04-04T04:44:22.261Z,58.23
2019-04-04T04:46:53.618Z,58.48
2019-04-04T04:49:25.851Z,52.85
2019-04-04T04:51:57.122Z,59.60
2019-04-04T04:54:28.247Z,54.00
2019-04-04T04:57:03.546Z,60.63
2019-04-04T04:59:32.365Z,50.70
2019-04-04T05:02:03.472Z,61.35
2019-04-04T05:04:36.145Z,52.33
2019-04-04T05:07:08.031Z,59.77
2019-04-04T05:09:39.404Z,65.17
2019-04-04T05:12:10.760Z,64.92
2019-04-04T05:14:42.262Z,58.80
2019-04-04T05:17:13.586Z,64.92
2019-04-04T05:19:46.008Z,63.17
2019-04-04T05:22:17.175Z,74.85
2019-04-04T05:25:06.892Z,60.43
2019-04-04T05:27:21.146Z,66.25
2019-04-04T05:29:52.355Z,61.05
2019-04-04T05:32:23.430Z,59.80
2019-04-04T05:34:55.638Z,60.45
2019-04-04T05:37:27.594Z,62.17
2019-04-04T05:39:58.950Z,58.08
2019-04-04T05:42:32.816Z,63.15
2019-04-04T05:45:02.977Z,54.38
2019-04-04T05:47:34.407Z,56.83
2019-04-04T05:50:06.201Z,62.20
2019-04-04T05:52:37.482Z,56.95
2019-04-04T05:55:10.855Z,58.73
2019-04-04T05:57:41.590Z,46.02
2019-04-04T06:00:14.004Z,51.48
2019-04-04T06:02:45.339Z,54.05
2019-04-04T06:05:17.220Z,54.42
2019-04-04T06:07:48.451Z,68.20
2019-04-04T06:10:19.612Z,56.08
2019-04-04T06:12:50.840Z,55.48
2019-04-04T06:15:22.011Z,52.13
2019-04-04T06:17:53.143Z,47.55
2019-04-04T06:20:24.473Z,53.68
2019-04-04T06:22:55.568Z,60.83
2019-04-04T06:25:26.963Z,57.73
2019-04-04T06:27:58.257Z,63.02
2019-04-04T06:30:42.256Z,50.63
2019-04-04T06:33:04.740Z,46.08
2019-04-04T06:35:35.498Z,45.75
2019-04-04T06:38:06.642Z,45.10
2019-04-04T06:40:37.730Z,42.67
2019-04-04T06:43:11.516Z,43.87
2019-04-04T06:45:41.649Z,45.80
2019-04-04T06:48:12.825Z,41.42
2019-04-04T06:50:43.862Z,41.75
2019-04-04T06:53:15.131Z,48.08
2019-04-04T06:55:46.212Z,42.00
2019-04-04T06:58:17.392Z,46.63
2019-04-04T07:00:50.151Z,39.13
2019-04-04T07:03:21.422Z,41.77
2019-04-04T07:05:52.673Z,38.02
2019-04-04T07:08:23.726Z,41.55
2019-04-04T07:10:58.226Z,41.48
2019-04-04T07:13:28.315Z,37.45
2019-04-04T07:16:07.002Z,39.23
2019-04-04T07:18:32.678Z,39.55
2019-04-04T07:21:03.845Z,38.58
2019-04-04T07:23:35.007Z,38.20
2019-04-04T07:26:06.253Z,39.45
2019-04-04T07:28:38.474Z,34.23
2019-04-04T07:31:09.653Z,32.58
2019-04-04T07:33:42.579Z,36.13
2019-04-04T07:36:13.535Z,31.68
2019-04-04T07:38:44.654Z,29.63
2019-04-04T07:41:15.897Z,34.08
2019-04-04T07:43:46.994Z,23.70
2019-04-04T07:46:18.159Z,28.77
2019-04-04T07:48:51.587Z,28.65
2019-04-04T07:51:22.424Z,27.95
2019-04-04T07:53:53.612Z,24.82
2019-04-04T07:56:24.715Z,24.85
2019-04-04T07:58:55.913Z,29.30
2019-04-04T08:01:26.966Z,24.85
2019-04-04T08:03:58.074Z,26.87
2019-04-04T08:06:29.269Z,26.12
2019-04-04T08:09:03.713Z,26.15
2019-04-04T08:11:35.010Z,23.75
2019-04-04T08:14:06.153Z,27.48
2019-04-04T08:16:37.326Z,22.80
2019-04-04T08:19:08.510Z,12.10
2019-04-04T08:21:39.529Z,11.88
2019-04-04T08:24:10.523Z,21.57
2019-04-04T08:26:41.877Z,18.70
2019-04-04T08:29:12.967Z,28.80
2019-04-04T08:31:44.103Z,25.00
2019-04-04T08:34:15.342Z,14.35
2019-04-04T08:36:46.360Z,16.45
2019-04-04T08:39:17.474Z,16.97
2019-04-04T08:41:48.511Z,21.20
2019-04-04T08:44:19.712Z,12.25
2019-04-04T08:46:50.713Z,10.68
2019-04-04T08:49:21.707Z,12.05
2019-04-04T08:51:52.748Z,8.58
2019-04-04T08:54:23.705Z,8.53
2019-04-04T08:56:54.788Z,8.90
2019-04-04T08:59:25.781Z,8.33
2019-04-04T09:01:56.852Z,4.78
2019-04-04T09:04:27.870Z,8.85
2019-04-04T09:06:58.898Z,10.50
2019-04-04T09:09:29.854Z,11.78
2019-04-04T09:12:01.107Z,11.60
2019-04-04T09:14:32.223Z,17.12
2019-04-04T09:17:03.176Z,16.87
2019-04-04T09:19:34.244Z,20.10
2019-04-04T09:22:05.524Z,16.20
2019-04-04T09:24:36.656Z,17.37
2019-04-04T09:27:07.904Z,18.37
2019-04-04T09:29:38.977Z,17.75
2019-04-04T09:32:10.045Z,16.90
2019-04-04T09:34:41.092Z,17.20
2019-04-04T09:37:12.043Z,15.30
2019-04-04T09:39:43.063Z,28.65
2019-04-04T09:42:14.197Z,16.90
2019-04-04T09:44:45.208Z,16.12
2019-04-04T09:47:16.261Z,19.30
2019-04-04T09:49:47.361Z,21.80
2019-04-04T09:52:18.628Z,16.93
2019-04-04T09:54:50.758Z,17.27
2019-04-04T09:57:21.962Z,15.85
2019-04-04T09:59:53.295Z,16.87
2019-04-04T10:02:24.331Z,13.03
2019-04-04T10:04:55.334Z,12.65
2019-04-04T10:07:26.874Z,16.77
2019-04-04T10:09:58.006Z,15.85
2019-04-04T10:12:30.520Z,19.67
2019-04-04T10:15:01.610Z,17.00
2019-04-04T10:17:32.845Z,23.45
2019-04-04T10:20:06.084Z,15.68
2019-04-04T10:22:37.225Z,18.95
2019-04-04T10:25:08.323Z,20.27
2019-04-04T10:27:39.437Z,18.92
2019-04-04T10:30:10.663Z,19.20
2019-04-04T10:32:41.816Z,17.70
2019-04-04T10:35:13.014Z,18.40
2019-04-04T10:37:44.156Z,17.25
2019-04-04T10:40:15.399Z,18.75
2019-04-04T10:42:46.615Z,17.90
2019-04-04T10:45:17.774Z,16.70
2019-04-04T10:47:48.930Z,17.90
2019-04-04T10:50:20.003Z,16.77
2019-04-04T10:52:51.175Z,17.80
2019-04-04T10:55:22.209Z,21.23
2019-04-04T10:57:53.415Z,18.17
2019-04-04T11:00:24.798Z,19.60
2019-04-04T11:02:55.905Z,20.40
2019-04-04T11:05:26.920Z,20.02
2019-04-04T11:07:58.203Z,18.70
2019-04-04T11:10:29.334Z,18.73
2019-04-04T11:13:02.881Z,22.22
2019-04-04T11:15:33.434Z,24.50
2019-04-04T11:18:04.470Z,18.92
2019-04-04T11:20:35.574Z,22.87
2019-04-04T11:23:06.796Z,19.98
2019-04-04T11:25:37.982Z,17.80
2019-04-04T11:28:09.160Z,24.70
2019-04-04T11:30:40.199Z,17.85
2019-04-04T11:33:11.299Z,16.62
2019-04-04T11:35:42.441Z,17.98
2019-04-04T11:38:14.671Z,19.07
2019-04-04T11:40:45.754Z,20.92
2019-04-04T11:43:17.390Z,25.80
2019-04-04T11:45:48.446Z,19.35
2019-04-04T11:48:19.613Z,22.90
2019-04-04T11:50:53.490Z,17.20
2019-04-04T11:53:25.137Z,22.85
2019-04-04T11:55:56.333Z,18.70
2019-04-04T11:58:27.461Z,19.30
2019-04-04T12:01:06.197Z,18.17
2019-04-04T12:03:37.361Z,18.00
2019-04-04T12:06:08.408Z,18.52
2019-04-04T12:08:39.421Z,20.20
2019-04-04T12:11:10.643Z,19.40
2019-04-04T12:13:41.877Z,17.23
2019-04-04T12:16:12.993Z,17.02
2019-04-04T12:18:44.204Z,23.70
2019-04-04T12:21:15.298Z,15.35
2019-04-04T12:23:46.430Z,15.40
2019-04-04T12:26:17.617Z,15.83
2019-04-04T12:28:48.751Z,18.35
2019-04-04T12:31:19.780Z,15.53
2019-04-04T12:33:50.861Z,15.50
2019-04-04T12:36:24.676Z,16.60
2019-04-04T12:38:55.150Z,13.83
2019-04-04T12:41:28.222Z,20.05
2019-04-04T12:43:59.367Z,16.23
2019-04-04T12:46:30.521Z,21.00
2019-04-04T12:49:01.612Z,17.32
2019-04-04T12:51:33.038Z,11.80
2019-04-04T12:54:04.173Z,18.32
2019-04-04T12:56:35.424Z,16.85
2019-04-04T12:59:06.569Z,15.50
2019-04-04T13:01:37.656Z,15.32
2019-04-04T13:04:08.999Z,18.55
2019-04-04T13:06:40.098Z,29.45
2019-04-04T13:09:11.355Z,16.25
2019-04-04T13:11:44.162Z,20.65
2019-04-04T13:14:15.301Z,18.12
2019-04-04T13:16:46.487Z,17.90
2019-04-04T13:19:17.571Z,17.92
2019-04-04T13:21:48.731Z,19.05
2019-04-04T13:24:19.872Z,24.45
2019-04-04T13:26:51.179Z,19.32
2019-04-04T13:29:22.256Z,19.85
2019-04-04T13:31:53.274Z,17.05
2019-04-04T13:34:24.604Z,19.37
2019-04-04T13:36:55.725Z,20.60
2019-04-04T13:39:26.763Z,12.37
2019-04-04T13:41:57.900Z,15.98
2019-04-04T13:44:29.028Z,15.65
2019-04-04T13:47:02.797Z,16.12
2019-04-04T13:49:33.160Z,15.93
2019-04-04T13:52:04.441Z,14.87
2019-04-04T13:54:35.714Z,17.82
2019-04-04T13:57:06.936Z,19.23
2019-04-04T13:59:38.178Z,20.60
2019-04-04T14:02:09.420Z,16.65
2019-04-04T14:04:40.577Z,18.70
2019-04-04T14:07:11.692Z,19.87
2019-04-04T14:09:45.207Z,14.53
2019-04-04T14:12:15.666Z,17.27
2019-04-04T14:14:47.197Z,16.45
2019-04-04T14:17:18.347Z,16.32
2019-04-04T14:19:49.434Z,20.27
2019-04-04T14:22:20.506Z,17.87
2019-04-04T14:24:51.573Z,17.60
2019-04-04T14:27:22.619Z,17.50
2019-04-04T14:29:55.304Z,18.77
2019-04-04T14:32:26.568Z,15.58
2019-04-04T14:34:57.624Z,18.17
2019-04-04T14:37:28.735Z,17.70
2019-04-04T14:39:59.936Z,18.62
2019-04-04T14:42:31.213Z,18.82
2019-04-04T14:45:02.884Z,16.57
2019-04-04T14:47:34.993Z,14.58
2019-04-04T14:50:07.528Z,19.17
2019-04-04T14:52:39.963Z,18.25
2019-04-04T14:55:11.125Z,17.52
2019-04-04T14:57:43.351Z,19.75
2019-04-04T15:00:16.156Z,18.00
2019-04-04T15:02:47.307Z,16.40
2019-04-04T15:05:19.562Z,16.50
2019-04-04T15:07:50.658Z,15.18
2019-04-04T15:10:21.982Z,19.40
2019-04-04T15:12:53.022Z,16.62
2019-04-04T15:15:26.251Z,17.45
2019-04-04T15:17:57.159Z,17.85
2019-04-04T15:20:30.638Z,22.80
2019-04-04T15:23:02.028Z,17.77
2019-04-04T15:25:33.271Z,14.80
2019-04-04T15:28:04.416Z,20.32
2019-04-04T15:30:35.471Z,20.35
2019-04-04T15:33:06.497Z,26.33
2019-04-04T15:35:37.680Z,18.35
2019-04-04T15:38:09.870Z,17.05
2019-04-04T15:40:41.107Z,23.57
2019-04-04T15:43:12.301Z,19.15
2019-04-04T15:45:44.563Z,18.82
2019-04-04T15:48:15.594Z,17.73
2019-04-04T15:50:46.685Z,20.48
2019-04-04T15:53:18.160Z,17.87
2019-04-04T15:55:49.308Z,20.75
2019-04-04T15:58:20.822Z,22.37
2019-04-04T16:00:52.215Z,29.25
2019-04-04T16:03:23.441Z,32.53
2019-04-04T16:05:54.636Z,27.90
2019-04-04T16:08:25.840Z,23.20
2019-04-04T16:11:00.146Z,23.62
2019-04-04T16:13:31.480Z,33.65
2019-04-04T16:16:05.275Z,28.50
2019-04-04T16:18:36.514Z,24.67
2019-04-04T16:21:07.982Z,25.27
2019-04-04T16:23:39.462Z,23.67
2019-04-04T16:26:10.611Z,27.77
2019-04-04T16:28:43.237Z,28.85
2019-04-04T16:31:14.329Z,26.45
2019-04-04T16:33:45.672Z,34.88
2019-04-04T16:36:16.898Z,28.32
2019-04-04T16:38:48.065Z,32.70
2019-04-04T16:41:19.120Z,28.75
2019-04-04T16:43:50.293Z,33.00
2019-04-04T16:46:21.527Z,34.10
2019-04-04T16:48:52.657Z,39.83
2019-04-04T16:51:23.868Z,40.10
2019-04-04T16:53:55.016Z,39.67
2019-04-04T16:56:26.235Z,45.75
2019-04-04T16:58:57.327Z,51.00
2019-04-04T17:01:28.462Z,50.33
2019-04-04T17:04:01.942Z,58.00
2019-04-04T17:06:33.019Z,47.80
2019-04-04T17:09:05.750Z,42.90
2019-04-04T17:11:37.076Z,58.30
2019-04-04T17:14:08.346Z,39.48
2019-04-04T17:16:39.645Z,39.27
2019-04-04T17:19:11.940Z,50.30
2019-04-04T17:21:43.065Z,42.90
2019-04-04T17:24:14.322Z,60.38
2019-04-04T17:26:45.500Z,53.85
2019-04-04T17:29:16.805Z,56.92
2019-04-04T17:31:50.393Z,57.53
2019-04-04T17:34:21.660Z,43.20
2019-04-04T17:36:54.360Z,47.50
2019-04-04T17:39:25.659Z,42.67
2019-04-04T17:41:57.127Z,50.05
2019-04-04T17:44:28.560Z,43.63
2019-04-04T17:47:03.232Z,64.92
2019-04-04T17:49:34.682Z,47.50
2019-04-04T17:52:07.898Z,70.72
2019-04-04T17:54:39.552Z,108.20
2019-04-04T17:57:11.118Z,88.62
2019-04-04T17:59:42.321Z,115.03
2019-04-04T18:02:13.480Z,95.67
2019-04-04T18:04:48.479Z,98.60
2019-04-04T18:07:18.742Z,95.75
2019-04-04T18:09:50.845Z,95.87
2019-04-04T18:12:21.914Z,81.87
2019-04-04T18:14:53.046Z,110.83
2019-04-04T18:17:24.210Z,77.42
2019-04-04T18:19:55.347Z,76.53
2019-04-04T18:22:26.489Z,82.92
2019-04-04T18:24:57.586Z,76.05
2019-04-04T18:27:28.654Z,79.80
2019-04-04T18:30:00.889Z,66.57
2019-04-04T18:32:31.966Z,69.37
2019-04-04T18:35:03.613Z,70.30
2019-04-04T18:37:34.828Z,75.80
2019-04-04T18:40:08.073Z,67.37
2019-04-04T18:42:39.150Z,71.75
2019-04-04T18:45:11.547Z,65.10
2019-04-04T18:47:42.725Z,62.58
2019-04-04T18:50:13.996Z,61.92
2019-04-04T18:52:46.316Z,71.85
2019-04-04T18:55:19.944Z,77.20
2019-04-04T18:57:50.711Z,69.10
2019-04-04T19:00:21.985Z,75.83
2019-04-04T19:02:53.238Z,82.22
2019-04-04T19:05:24.386Z,85.17
2019-04-04T19:07:55.465Z,107.43
2019-04-04T19:10:26.769Z,87.20
2019-04-04T19:13:05.237Z,90.60
2019-04-04T19:15:30.771Z,75.72
2019-04-04T19:18:01.976Z,76.05
2019-04-04T19:20:33.158Z,85.72
2019-04-04T19:23:04.252Z,90.62
2019-04-04T19:25:35.784Z,93.70
2019-04-04T19:28:07.731Z,88.27
2019-04-04T19:30:38.965Z,76.47
2019-04-04T19:33:11.257Z,100.75
2019-04-04T19:35:42.564Z,104.15
2019-04-04T19:38:13.665Z,86.32
2019-04-04T19:40:44.759Z,78.72
2019-04-04T19:43:18.278Z,78.65
2019-04-04T19:45:48.637Z,72.03
2019-04-04T19:48:19.817Z,80.85
2019-04-04T19:50:51.918Z,79.62
2019-04-04T19:53:23.056Z,69.80
2019-04-04T19:55:55.387Z,77.37
2019-04-04T19:58:26.581Z,80.55
2019-04-04T20:00:57.840Z,88.62
2019-04-04T20:03:28.984Z,87.08
2019-04-04T20:06:00.194Z,92.50
2019-04-04T20:08:31.311Z,88.27
2019-04-04T20:11:02.703Z,93.72
2019-04-04T20:13:33.833Z,101.87
2019-04-04T20:16:04.935Z,81.65
2019-04-04T20:18:36.061Z,78.42
2019-04-04T20:21:07.089Z,89.20
2019-04-04T20:23:38.183Z,86.92
2019-04-04T20:26:09.351Z,79.95
2019-04-04T20:28:40.523Z,81.20
2019-04-04T20:31:11.695Z,78.07
2019-04-04T20:33:42.818Z,90.03
2019-04-04T20:36:13.841Z,77.17
2019-04-04T20:38:45.080Z,76.35
2019-04-04T20:41:16.728Z,82.45
2019-04-04T20:43:48.045Z,77.12
2019-04-04T20:46:19.165Z,78.90
2019-04-04T20:48:50.486Z,77.42
2019-04-04T20:51:21.590Z,79.15
2019-04-04T20:53:52.741Z,80.05
2019-04-04T20:56:23.863Z,79.53
2019-04-04T20:58:54.930Z,75.17
2019-04-04T21:01:26.155Z,92.88
2019-04-04T21:03:57.326Z,90.53
2019-04-04T21:06:28.433Z,89.72
2019-04-04T21:08:59.535Z,83.87
2019-04-04T21:11:30.905Z,81.45
2019-04-04T21:14:01.996Z,86.50
2019-04-04T21:16:33.044Z,84.60
2019-04-04T21:19:04.135Z,91.22
2019-04-04T21:21:35.177Z,93.75
2019-04-04T21:24:06.213Z,91.80
2019-04-04T21:26:37.387Z,84.32
2019-04-04T21:29:08.445Z,95.55
2019-04-04T21:31:39.468Z,97.55
2019-04-04T21:34:10.509Z,81.63
2019-04-04T21:36:41.639Z,96.82
2019-04-04T21:39:12.720Z,115.57
2019-04-04T21:41:43.817Z,86.40
2019-04-04T21:44:14.993Z,96.28
2019-04-04T21:46:46.416Z,86.50
2019-04-04T21:49:17.471Z,82.70
2019-04-04T21:51:48.558Z,100.87
2019-04-04T21:54:19.683Z,97.30
2019-04-04T21:56:50.764Z,93.10
2019-04-04T21:59:21.892Z,91.20
2019-04-04T22:01:53.210Z,84.72
2019-04-04T22:04:24.453Z,86.37
2019-04-04T22:06:55.558Z,88.33
2019-04-04T22:09:26.789Z,88.72
2019-04-04T22:11:58.004Z,89.70
2019-04-04T22:14:29.101Z,82.72
2019-04-04T22:17:00.310Z,93.97
2019-04-04T22:19:32.513Z,92.35
2019-04-04T22:22:03.700Z,89.30
2019-04-04T22:24:34.917Z,82.15
2019-04-04T22:27:06.244Z,83.62
2019-04-04T22:29:37.290Z,85.65
2019-04-04T22:32:08.487Z,86.00
2019-04-04T22:34:39.580Z,86.72
2019-04-04T22:37:10.821Z,84.75
2019-04-04T22:39:41.980Z,86.30
2019-04-04T22:42:13.327Z,81.85
2019-04-04T22:44:44.493Z,82.12
2019-04-04T22:47:15.646Z,83.95
2019-04-04T22:49:46.815Z,89.15
2019-04-04T22:52:17.827Z,91.97
2019-04-04T22:54:48.888Z,85.25
2019-04-04T22:57:19.926Z,90.97
2019-04-04T22:59:51.026Z,90.22
2019-04-04T23:02:22.182Z,83.05
2019-04-04T23:04:53.255Z,86.53
2019-04-04T23:07:24.343Z,96.22
2019-04-04T23:09:55.404Z,100.18
2019-04-04T23:12:26.547Z,89.85
2019-04-04T23:14:57.597Z,92.72
2019-04-04T23:17:29.805Z,95.17
2019-04-04T23:20:01.077Z,99.55
2019-04-04T23:22:32.157Z,98.67
2019-04-04T23:25:03.688Z,95.77
2019-04-04T23:27:34.682Z,99.90
2019-04-04T23:30:06.365Z,85.85
2019-04-04T23:32:37.506Z,96.75
2019-04-04T23:35:08.558Z,95.70
2019-04-04T23:37:39.632Z,105.60
2019-04-04T23:40:10.752Z,106.63
2019-04-04T23:42:41.766Z,102.07
2019-04-04T23:45:13.047Z,95.15
2019-04-04T23:47:44.283Z,96.22
2019-04-04T23:50:15.528Z,104.75
2019-04-04T23:52:46.669Z,99.75
2019-04-04T23:55:18.840Z,97.95
2019-04-04T23:57:50.030Z,95.15
